Time;durP1;ratioP1;P1;durP2;ratioP2;P2;SDS_P1;SDS_P2;PMS_P1;PMS_P2;Temp;Humidity;BMP_temperature;BMP_pressure;BME280_temperature;BME280_humidity;BME280_pressure;Samples;Min_cycle;Max_cycle;Signal;HPM_P1;HPM_P2
2022/10/21 00:00:55;;;;;;;4.75;3.45;;;4.50;99.90;;;;;;6294650;22;20007;-69
2022/10/21 00:03:21;;;;;;;5.95;4.20;;;4.40;99.90;;;;;;6294620;22;20366;-69
2022/10/21 00:05:47;;;;;;;3.45;2.40;;;4.40;99.90;;;;;;6293569;22;20046;-69
2022/10/21 00:08:13;;;;;;;6.32;3.03;;;4.40;99.90;;;;;;6294332;22;20766;-70
2022/10/21 00:10:39;;;;;;;4.65;3.60;;;4.30;99.90;;;;;;6292941;22;20429;-70
2022/10/21 00:13:04;;;;;;;6.65;3.80;;;4.40;99.90;;;;;;6294039;22;20011;-71
2022/10/21 00:15:30;;;;;;;4.70;2.90;;;4.30;99.90;;;;;;6265267;22;20019;-70
2022/10/21 00:17:55;;;;;;;4.10;2.85;;;4.30;99.90;;;;;;6293114;22;20321;-70
2022/10/21 00:20:21;;;;;;;4.97;3.38;;;4.20;99.90;;;;;;6294558;22;20041;-69
2022/10/21 00:22:47;;;;;;;4.65;3.65;;;4.20;99.90;;;;;;6293979;22;20003;-69
2022/10/21 00:25:12;;;;;;;4.60;3.70;;;4.20;99.90;;;;;;6292458;22;20015;-70
2022/10/21 00:27:38;;;;;;;5.53;3.60;;;4.20;99.90;;;;;;6291966;22;20027;-71
2022/10/21 00:30:06;;;;;;;4.38;3.72;;;4.20;99.90;;;;;;6293291;22;20680;-70
2022/10/21 00:32:32;;;;;;;4.70;3.47;;;4.30;99.90;;;;;;6293532;22;20051;-71
2022/10/21 00:34:58;;;;;;;3.63;2.88;;;4.30;99.90;;;;;;6293983;22;20646;-71
2022/10/21 00:37:24;;;;;;;3.45;2.13;;;4.30;99.90;;;;;;6294463;22;20014;-71
2022/10/21 00:39:50;;;;;;;3.83;2.92;;;4.30;99.90;;;;;;6293374;22;20018;-71
2022/10/21 00:42:20;;;;;;;4.60;3.20;;;4.20;99.90;;;;;;6293980;22;20003;-71
2022/10/21 00:45:04;;;;;;;4.13;3.33;;;4.20;99.90;;;;;;6289537;22;20011;-71
2022/10/21 00:47:30;;;;;;;5.45;4.07;;;4.10;99.90;;;;;;6265574;22;20007;-71
2022/10/21 00:50:00;;;;;;;6.20;3.80;;;4.20;99.90;;;;;;6293271;22;20007;-71
2022/10/21 00:52:28;;;;;;;6.82;3.92;;;4.20;99.90;;;;;;6294420;22;20023;-71
2022/10/21 00:54:57;;;;;;;9.15;3.20;;;4.20;99.90;;;;;;6292971;22;20003;-71
2022/10/21 00:57:25;;;;;;;5.88;3.92;;;4.10;99.90;;;;;;6294289;22;20008;-71
2022/10/21 00:59:55;;;;;;;5.55;4.18;;;4.00;99.90;;;;;;6292746;22;20049;-71
2022/10/21 01:02:21;;;;;;;4.60;3.90;;;4.00;99.90;;;;;;6295327;22;20251;-71
2022/10/21 01:04:51;;;;;;;3.22;2.50;;;4.00;99.90;;;;;;6293412;22;20007;-71
2022/10/21 01:07:17;;;;;;;6.57;2.90;;;4.10;99.90;;;;;;6293363;22;19999;-71
2022/10/21 01:09:42;;;;;;;6.20;3.60;;;4.20;99.90;;;;;;6263079;22;20311;-71
2022/10/21 01:12:23;;;;;;;6.85;3.55;;;4.20;99.90;;;;;;6294639;22;20459;-71
2022/10/21 01:14:56;;;;;;;5.90;4.55;;;4.10;99.90;;;;;;6293442;22;20497;-71
2022/10/21 01:17:53;;;;;;;8.02;5.28;;;4.10;99.90;;;;;;6293416;22;20007;-71
2022/10/21 01:20:36;;;;;;;7.07;4.90;;;4.20;99.90;;;;;;6281916;22;20023;-71
2022/10/21 01:23:46;;;;;;;5.20;3.83;;;4.20;99.90;;;;;;6293680;22;20050;-71
2022/10/21 01:26:43;;;;;;;4.18;2.75;;;4.20;99.90;;;;;;6293155;22;20007;-71
2022/10/21 01:29:55;;;;;;;4.07;2.35;;;3.90;99.90;;;;;;6292909;22;19999;-71
2022/10/21 01:32:54;;;;;;;5.88;2.85;;;3.60;99.90;;;;;;6293921;22;20076;-71
2022/10/21 01:35:31;;;;;;;4.85;2.95;;;3.50;99.90;;;;;;6237177;22;20467;-71
2022/10/21 01:38:22;;;;;;;4.22;3.53;;;3.50;99.90;;;;;;6264370;22;20011;-71
2022/10/21 01:41:10;;;;;;;6.78;3.85;;;3.60;99.90;;;;;;6295606;22;19999;-71
2022/10/21 01:43:57;;;;;;;5.00;3.53;;;3.60;99.90;;;;;;6296749;22;19996;-71
2022/10/21 01:46:32;;;;;;;5.35;3.22;;;3.70;99.90;;;;;;6265591;22;20061;-71
2022/10/21 01:49:05;;;;;;;5.05;2.80;;;3.80;99.90;;;;;;6294520;22;20006;-71
2022/10/21 01:51:31;;;;;;;3.88;2.60;;;3.70;99.90;;;;;;6296765;22;20048;-71
2022/10/21 01:54:05;;;;;;;3.45;2.58;;;3.70;99.90;;;;;;6295658;22;20082;-71
2022/10/21 01:56:32;;;;;;;3.47;2.30;;;3.70;99.90;;;;;;6295865;22;20454;-70
2022/10/21 01:58:59;;;;;;;3.88;2.60;;;3.60;99.90;;;;;;6293827;22;20344;-71
2022/10/21 02:01:25;;;;;;;3.47;2.70;;;3.60;99.90;;;;;;6296010;22;20007;-68
2022/10/21 02:03:56;;;;;;;4.32;3.15;;;3.60;99.90;;;;;;6294725;22;20022;-68
2022/10/21 02:06:21;;;;;;;4.18;3.45;;;3.60;99.90;;;;;;6295659;22;20014;-68
2022/10/21 02:08:47;;;;;;;5.13;3.63;;;3.70;99.90;;;;;;6295992;22;20078;-68
2022/10/21 02:11:14;;;;;;;4.13;3.33;;;3.60;99.90;;;;;;6294815;22;20008;-68
2022/10/21 02:13:54;;;;;;;4.93;3.40;;;3.70;99.90;;;;;;6296320;22;20009;-68
2022/10/21 02:16:24;;;;;;;4.13;3.33;;;3.60;99.90;;;;;;6295231;22;20337;-68
2022/10/21 02:18:49;;;;;;;8.77;3.20;;;3.50;99.90;;;;;;6295300;22;20493;-71
2022/10/21 02:21:19;;;;;;;4.53;2.95;;;3.50;99.90;;;;;;6296553;22;20003;-71
2022/10/21 02:23:50;;;;;;;4.38;3.00;;;3.50;99.90;;;;;;6295832;22;20000;-71
2022/10/21 02:26:16;;;;;;;4.18;3.47;;;3.50;99.90;;;;;;6296237;22;20013;-71
2022/10/21 02:28:42;;;;;;;4.85;3.05;;;3.40;99.90;;;;;;6297161;22;20074;-71
2022/10/21 02:31:35;;;;;;;5.95;3.60;;;3.50;99.90;;;;;;6266911;22;20019;-70
2022/10/21 02:34:28;;;;;;;4.78;3.80;;;3.40;99.90;;;;;;6295811;22;19999;-70
2022/10/21 02:37:29;;;;;;;10.82;6.13;;;3.50;99.90;;;;;;6296746;22;19999;-70
2022/10/21 02:40:14;;;;;;;6.50;4.18;;;3.50;99.90;;;;;;6295545;22;20015;-70
2022/10/21 02:42:46;;;;;;;6.65;4.80;;;3.40;99.90;;;;;;6296412;22;20189;-70
2022/10/21 02:45:12;;;;;;;5.70;4.43;;;3.40;99.90;;;;;;6293126;22;20159;-70
2022/10/21 02:47:38;;;;;;;6.57;4.20;;;3.50;99.90;;;;;;6269030;22;20007;-70
2022/10/21 02:50:05;;;;;;;6.05;4.68;;;3.60;99.90;;;;;;6294993;22;20027;-70
2022/10/21 02:52:30;;;;;;;5.03;3.63;;;3.70;99.90;;;;;;6295995;22;20194;-70
2022/10/21 02:54:56;;;;;;;5.78;3.60;;;3.70;99.90;;;;;;6295415;22;20476;-70
2022/10/21 02:57:21;;;;;;;7.50;4.72;;;3.60;99.90;;;;;;6297923;22;20045;-70
2022/10/21 02:59:47;;;;;;;6.82;4.53;;;3.50;99.90;;;;;;6295073;22;20057;-70
2022/10/21 03:02:12;;;;;;;6.80;4.30;;;3.20;99.90;;;;;;6295350;22;20007;-70
2022/10/21 03:04:38;;;;;;;4.72;3.80;;;3.20;99.90;;;;;;6296101;22;20003;-70
2022/10/21 03:07:04;;;;;;;5.28;3.70;;;3.20;99.90;;;;;;6296023;22;20061;-70
2022/10/21 03:09:30;;;;;;;4.53;3.45;;;3.10;99.90;;;;;;6298439;22;20050;-70
2022/10/21 03:11:55;;;;;;;4.88;3.72;;;3.00;99.90;;;;;;6297467;22;20438;-70
2022/10/21 03:14:21;;;;;;;5.32;3.75;;;3.00;99.90;;;;;;6298555;22;20009;-70
2022/10/21 03:16:46;;;;;;;7.18;5.22;;;3.00;99.90;;;;;;6297706;22;20029;-67
2022/10/21 03:19:12;;;;;;;5.78;4.57;;;3.00;99.90;;;;;;6296973;22;20038;-68
2022/10/21 03:21:38;;;;;;;6.90;5.10;;;3.10;99.90;;;;;;6298618;22;20003;-68
2022/10/21 03:24:03;;;;;;;9.20;5.45;;;3.10;99.90;;;;;;6297675;22;20011;-68
2022/10/21 03:26:29;;;;;;;7.40;5.35;;;3.20;99.90;;;;;;6298168;22;20546;-68
2022/10/21 03:28:54;;;;;;;6.90;4.93;;;3.30;99.90;;;;;;6297368;22;20383;-67
2022/10/21 03:31:20;;;;;;;7.07;5.20;;;3.40;99.90;;;;;;6296701;22;20566;-68
2022/10/21 03:33:45;;;;;;;5.82;4.82;;;3.40;99.90;;;;;;6298239;22;20018;-68
2022/10/21 03:36:11;;;;;;;7.40;5.15;;;3.30;99.90;;;;;;6297360;22;20078;-71
2022/10/21 03:38:37;;;;;;;5.32;3.97;;;3.30;99.90;;;;;;6297983;22;20039;-71
2022/10/21 03:41:02;;;;;;;5.35;3.78;;;3.10;99.90;;;;;;6297761;22;20003;-70
2022/10/21 03:43:28;;;;;;;5.13;3.60;;;3.00;99.90;;;;;;6298246;22;20019;-71
2022/10/21 03:45:53;;;;;;;4.95;4.32;;;2.90;99.90;;;;;;6296676;22;20007;-70
2022/10/21 03:48:19;;;;;;;8.98;4.93;;;2.80;99.90;;;;;;6297551;22;19999;-70
2022/10/21 03:50:44;;;;;;;7.05;5.32;;;2.80;99.90;;;;;;6297727;22;20374;-71
2022/10/21 03:53:10;;;;;;;8.18;5.30;;;2.90;99.90;;;;;;6297761;22;20006;-70
2022/10/21 03:55:36;;;;;;;7.20;5.35;;;2.90;99.90;;;;;;6297808;22;20014;-70
2022/10/21 03:58:01;;;;;;;7.47;5.47;;;3.00;99.90;;;;;;6296810;22;20007;-70
2022/10/21 04:00:27;;;;;;;8.18;5.82;;;3.10;99.90;;;;;;6269583;22;20021;-70
2022/10/21 04:02:52;;;;;;;7.72;5.80;;;3.10;99.90;;;;;;6296458;22;20007;-70
2022/10/21 04:05:18;;;;;;;8.45;5.88;;;3.00;99.90;;;;;;6294534;22;20010;-70
2022/10/21 04:07:43;;;;;;;10.00;6.25;;;3.00;99.90;;;;;;6298264;22;20007;-71
2022/10/21 04:10:10;;;;;;;8.95;6.70;;;2.90;99.90;;;;;;6296991;22;20074;-71
2022/10/21 04:12:36;;;;;;;7.60;5.93;;;2.90;99.90;;;;;;6298064;22;20057;-71
2022/10/21 04:15:01;;;;;;;6.40;5.10;;;3.00;99.90;;;;;;6296162;22;20004;-71
2022/10/21 04:17:27;;;;;;;6.32;4.25;;;2.90;99.90;;;;;;6297333;22;20064;-71
2022/10/21 04:19:52;;;;;;;7.88;4.55;;;2.90;99.90;;;;;;6297799;22;20018;-71
2022/10/21 04:22:18;;;;;;;8.05;4.38;;;2.90;99.90;;;;;;6296423;22;19999;-71
2022/10/21 04:24:44;;;;;;;8.05;4.63;;;2.70;99.90;;;;;;6297172;22;20007;-70
2022/10/21 04:27:09;;;;;;;8.23;4.68;;;2.60;99.90;;;;;;6296544;22;20053;-71
2022/10/21 04:29:35;;;;;;;5.55;4.20;;;2.60;99.90;;;;;;6296739;22;20018;-70
2022/10/21 04:32:00;;;;;;;8.55;5.13;;;2.60;99.90;;;;;;6294903;22;20015;-69
2022/10/21 04:34:26;;;;;;;8.05;4.63;;;2.60;99.90;;;;;;6295981;22;20011;-69
2022/10/21 04:36:51;;;;;;;10.52;5.75;;;2.70;99.90;;;;;;6296881;22;20007;-70
2022/10/21 04:39:17;;;;;;;7.05;5.38;;;2.70;99.90;;;;;;6266849;22;20022;-70
2022/10/21 04:41:44;;;;;;;6.65;5.20;;;2.80;99.90;;;;;;6294497;22;20007;-70
2022/10/21 04:44:10;;;;;;;6.57;5.05;;;2.90;99.90;;;;;;6294520;22;20003;-70
2022/10/21 04:46:36;;;;;;;10.23;5.68;;;2.90;99.90;;;;;;6294504;22;20011;-69
2022/10/21 04:49:01;;;;;;;7.57;5.72;;;3.00;99.90;;;;;;6293757;22;20715;-70
2022/10/21 04:51:27;;;;;;;7.05;6.28;;;3.00;99.90;;;;;;6266952;22;20037;-70
2022/10/21 04:53:52;;;;;;;9.23;5.97;;;3.00;99.90;;;;;;6294556;22;20011;-68
2022/10/21 04:56:18;;;;;;;11.27;6.68;;;2.90;99.90;;;;;;6295794;22;20030;-68
2022/10/21 04:58:44;;;;;;;12.35;5.95;;;2.90;99.90;;;;;;6296723;22;20013;-68
2022/10/21 05:01:09;;;;;;;13.65;6.85;;;2.90;99.90;;;;;;6293035;22;20121;-68
2022/10/21 05:03:35;;;;;;;8.43;6.38;;;2.90;99.90;;;;;;6290986;22;20003;-68
2022/10/21 05:06:00;;;;;;;9.10;5.30;;;2.90;99.90;;;;;;6294398;22;20066;-68
2022/10/21 05:08:26;;;;;;;6.72;3.92;;;2.80;99.90;;;;;;6294262;22;20018;-69
2022/10/21 05:11:02;;;;;;;5.88;4.45;;;2.70;99.90;;;;;;6295744;22;20081;-69
2022/10/21 05:13:28;;;;;;;7.93;5.20;;;2.60;99.90;;;;;;6295365;22;20332;-68
2022/10/21 05:16:00;;;;;;;12.77;9.93;;;2.60;99.90;;;;;;6296022;22;20390;-70
2022/10/21 05:18:25;;;;;;;32.78;21.30;;;2.60;99.90;;;;;;6296636;22;20003;-68
2022/10/21 05:20:53;;;;;;;32.97;18.58;;;2.60;99.90;;;;;;6295765;22;20061;-67
2022/10/21 05:23:19;;;;;;;17.10;9.77;;;2.60;99.90;;;;;;6294565;22;20090;-68
2022/10/21 05:25:45;;;;;;;16.65;11.23;;;2.60;99.90;;;;;;6295443;22;20082;-70
2022/10/21 05:28:11;;;;;;;20.00;14.10;;;2.50;99.90;;;;;;6293773;22;20007;-69
2022/10/21 05:30:39;;;;;;;20.15;13.45;;;2.50;99.90;;;;;;6295666;22;20102;-69
2022/10/21 05:33:05;;;;;;;19.10;13.18;;;2.60;99.90;;;;;;6294957;22;20281;-69
2022/10/21 05:35:31;;;;;;;15.38;9.98;;;2.80;99.90;;;;;;6294634;22;20454;-68
2022/10/21 05:37:56;;;;;;;11.35;7.35;;;2.70;99.90;;;;;;6290359;22;20083;-69
2022/10/21 05:40:22;;;;;;;11.85;6.60;;;2.70;99.90;;;;;;6291638;22;20725;-69
2022/10/21 05:42:47;;;;;;;7.97;6.28;;;2.70;99.90;;;;;;6291908;22;20327;-69
2022/10/21 05:45:13;;;;;;;9.07;6.82;;;2.50;99.90;;;;;;6292523;22;20068;-70
2022/10/21 05:47:42;;;;;;;46.28;20.35;;;2.30;99.90;;;;;;6296116;22;20006;-70
2022/10/21 05:50:09;;;;;;;32.42;17.60;;;2.40;99.90;;;;;;6295547;22;20484;-70
2022/10/21 05:52:35;;;;;;;34.20;16.48;;;2.60;99.90;;;;;;6295994;22;20007;-70
2022/10/21 05:55:01;;;;;;;25.48;15.25;;;2.80;99.90;;;;;;6296939;22;20421;-70
2022/10/21 05:57:26;;;;;;;19.30;10.00;;;3.00;99.90;;;;;;6296745;22;20035;-70
2022/10/21 05:59:52;;;;;;;19.48;12.18;;;3.00;99.90;;;;;;6296397;22;20065;-70
2022/10/21 06:02:17;;;;;;;15.38;9.55;;;2.90;99.90;;;;;;6295911;22;19999;-70
2022/10/21 06:04:43;;;;;;;14.68;9.95;;;2.60;99.90;;;;;;6296778;22;20038;-70
2022/10/21 06:07:08;;;;;;;21.48;13.23;;;2.60;99.90;;;;;;6297065;22;20337;-70
2022/10/21 06:09:34;;;;;;;24.35;14.20;;;2.70;99.90;;;;;;6296039;22;20003;-70
2022/10/21 06:12:00;;;;;;;27.75;15.13;;;2.80;99.90;;;;;;6269212;22;20007;-70
2022/10/21 06:14:26;;;;;;;29.67;17.35;;;3.00;99.90;;;;;;6268149;22;20007;-70
2022/10/21 06:16:51;;;;;;;27.15;17.75;;;3.20;99.90;;;;;;6295153;22;20400;-70
2022/10/21 06:19:17;;;;;;;23.10;15.20;;;3.30;99.90;;;;;;6295332;22;20022;-70
2022/10/21 06:21:42;;;;;;;22.67;15.75;;;3.40;99.90;;;;;;6296561;22;20133;-70
2022/10/21 06:24:08;;;;;;;22.63;12.93;;;3.30;99.90;;;;;;6288770;22;20003;-70
2022/10/21 06:26:34;;;;;;;19.92;13.15;;;3.20;99.90;;;;;;6294826;22;20003;-70
2022/10/21 06:28:59;;;;;;;20.60;14.35;;;3.30;99.90;;;;;;6295375;22;20006;-70
2022/10/21 06:31:25;;;;;;;24.67;16.50;;;3.40;99.90;;;;;;6295495;22;20621;-69
2022/10/21 06:33:50;;;;;;;24.15;17.15;;;3.60;99.90;;;;;;6295490;22;20011;-69
2022/10/21 06:36:16;;;;;;;21.63;14.90;;;3.60;99.90;;;;;;6296141;22;20421;-69
2022/10/21 06:38:43;;;;;;;19.17;13.45;;;3.50;99.90;;;;;;6288818;22;20504;-69
2022/10/21 06:41:11;;;;;;;20.88;13.93;;;3.60;99.90;;;;;;6291894;22;20094;-70
2022/10/21 06:43:37;;;;;;;21.27;14.30;;;3.90;99.90;;;;;;6297286;22;20078;-69
2022/10/21 06:46:05;;;;;;;23.33;14.88;;;4.10;99.90;;;;;;6296520;22;20027;-70
2022/10/21 06:48:31;;;;;;;16.58;12.05;;;4.40;99.90;;;;;;6295973;22;20011;-69
2022/10/21 06:50:58;;;;;;;15.48;10.52;;;4.40;99.90;;;;;;6295440;22;20003;-70
2022/10/21 06:53:24;;;;;;;16.48;12.40;;;4.50;99.90;;;;;;6297084;22;20384;-70
2022/10/21 06:55:50;;;;;;;20.60;12.80;;;4.70;99.90;;;;;;6297827;22;19999;-70
2022/10/21 06:58:15;;;;;;;19.02;11.82;;;5.00;99.90;;;;;;6294293;22;20462;-71
2022/10/21 07:00:41;;;;;;;16.00;11.35;;;5.40;99.90;;;;;;6296007;22;20076;-70
2022/10/21 07:03:06;;;;;;;17.35;11.38;;;5.60;99.90;;;;;;6295912;22;20006;-70
2022/10/21 07:05:32;;;;;;;12.30;8.90;;;5.90;99.90;;;;;;6295528;22;20082;-70
2022/10/21 07:07:57;;;;;;;9.52;7.75;;;6.20;99.90;;;;;;6293057;22;20003;-70
2022/10/21 07:10:23;;;;;;;12.30;7.40;;;6.40;99.90;;;;;;6296251;22;20007;-70
2022/10/21 07:12:49;;;;;;;12.57;8.15;;;6.60;99.90;;;;;;6296705;22;19999;-70
2022/10/21 07:15:14;;;;;;;11.98;7.97;;;6.90;99.90;;;;;;6287613;22;20663;-69
2022/10/21 07:17:40;;;;;;;14.57;7.85;;;7.20;99.90;;;;;;6295992;22;20014;-70
2022/10/21 07:20:06;;;;;;;9.68;6.90;;;7.40;99.90;;;;;;6262217;22;20130;-69
2022/10/21 07:22:31;;;;;;;10.30;7.45;;;7.60;99.90;;;;;;6296908;22;20144;-70
2022/10/21 07:24:57;;;;;;;9.68;6.28;;;7.80;99.90;;;;;;6267041;22;20003;-70
2022/10/21 07:27:23;;;;;;;7.18;6.00;;;8.00;99.90;;;;;;6289542;22;20436;-70
2022/10/21 07:29:48;;;;;;;12.85;5.90;;;8.30;99.90;;;;;;6292780;22;20015;-70
2022/10/21 07:32:14;;;;;;;6.40;5.40;;;8.50;99.90;;;;;;6294833;22;20316;-70
2022/10/21 07:34:39;;;;;;;5.45;3.85;;;8.70;99.90;;;;;;6296477;22;20010;-70
2022/10/21 07:37:05;;;;;;;13.27;3.95;;;8.90;99.90;;;;;;6292812;22;19996;-71
2022/10/21 07:39:33;;;;;;;6.65;3.50;;;9.20;99.90;;;;;;6289348;22;20016;-70
2022/10/21 07:41:58;;;;;;;8.00;3.42;;;9.30;99.90;;;;;;6262960;22;20003;-70
2022/10/21 07:44:25;;;;;;;6.63;4.13;;;9.40;99.90;;;;;;6294878;22;20010;-70
2022/10/21 07:46:52;;;;;;;6.63;3.95;;;9.50;99.90;;;;;;6296648;22;20003;-70
2022/10/21 07:49:19;;;;;;;4.35;3.80;;;9.50;99.90;;;;;;6292645;22;20530;-70
2022/10/21 07:51:45;;;;;;;5.40;3.78;;;9.40;99.90;;;;;;6297203;22;20022;-70
2022/10/21 07:54:13;;;;;;;5.93;3.30;;;9.40;99.90;;;;;;6293830;22;20003;-70
2022/10/21 07:56:41;;;;;;;4.32;3.72;;;9.30;99.90;;;;;;6294062;22;20014;-69
2022/10/21 07:59:08;;;;;;;7.00;3.92;;;9.30;99.90;;;;;;6289793;22;20817;-69
2022/10/21 08:01:35;;;;;;;14.27;4.63;;;9.30;99.90;;;;;;6296611;22;20011;-69
2022/10/21 08:04:01;;;;;;;4.00;3.55;;;9.30;99.90;;;;;;6295143;22;20007;-69
2022/10/21 08:06:27;;;;;;;5.05;3.63;;;9.40;99.90;;;;;;6294731;22;20086;-70
2022/10/21 08:08:56;;;;;;;5.38;3.80;;;9.50;99.90;;;;;;6291964;22;20007;-70
2022/10/21 08:11:28;;;;;;;4.07;3.35;;;9.70;99.90;;;;;;6292178;22;20090;-69
2022/10/21 08:13:54;;;;;;;;;;;9.70;99.90;;;;;;6293253;22;20014;-70
2022/10/21 08:16:20;;;;;;;5.38;3.50;;;9.80;99.90;;;;;;6293874;22;19904;-69
2022/10/21 08:18:46;;;;;;;4.97;3.63;;;9.80;99.90;;;;;;6294275;22;20022;-70
2022/10/21 08:21:11;;;;;;;4.47;3.28;;;9.80;99.90;;;;;;6262365;22;20437;-70
2022/10/21 08:23:37;;;;;;;4.55;3.30;;;9.80;99.90;;;;;;6296710;22;20007;-70
2022/10/21 08:26:03;;;;;;;3.50;2.90;;;9.70;99.90;;;;;;6296322;22;20407;-70
2022/10/21 08:28:30;;;;;;;4.90;3.42;;;9.70;99.90;;;;;;6297198;22;20009;-69
2022/10/21 08:31:13;;;;;;;5.28;3.10;;;9.60;99.90;;;;;;6296237;22;20095;-70
2022/10/21 08:33:39;;;;;;;4.55;3.10;;;9.70;99.90;;;;;;6294662;22;20006;-70
2022/10/21 08:36:14;;;;;;;4.53;3.17;;;9.80;99.90;;;;;;6293693;22;20007;-69
2022/10/21 08:38:40;;;;;;;4.40;3.28;;;9.90;99.90;;;;;;6292986;22;20042;-69
2022/10/21 08:41:27;;;;;;;9.63;3.70;;;9.80;99.90;;;;;;6294310;22;20045;-69
2022/10/21 08:44:13;;;;;;;5.95;3.35;;;9.90;99.90;;;;;;6295930;22;20000;-70
2022/10/21 08:46:43;;;;;;;4.28;3.42;;;9.90;99.90;;;;;;6295145;22;20003;-69
2022/10/21 08:49:27;;;;;;;4.35;3.70;;;9.80;99.90;;;;;;6294388;22;20420;-69
2022/10/21 08:52:03;;;;;;;5.75;3.30;;;9.70;99.90;;;;;;6291116;22;20796;-68
2022/10/21 08:54:50;;;;;;;8.85;3.40;;;9.80;99.90;;;;;;6293634;22;20003;-69
2022/10/21 08:57:16;;;;;;;4.88;3.15;;;9.90;99.90;;;;;;6290650;22;20034;-69
2022/10/21 08:59:41;;;;;;;5.68;3.25;;;10.00;99.90;;;;;;6266453;22;20389;-69
2022/10/21 09:02:34;;;;;;;5.90;3.40;;;10.00;99.90;;;;;;6293452;22;20002;-69
2022/10/21 09:05:05;;;;;;;;;;;10.00;99.90;;;;;;6295819;22;20094;-68
2022/10/21 09:08:10;;;;;;;10.18;3.22;;;10.00;99.90;;;;;;6295631;22;20283;-69
2022/10/21 09:10:52;;;;;;;5.03;3.20;;;10.00;99.90;;;;;;6295771;22;20002;-69
2022/10/21 09:13:39;;;;;;;4.80;3.25;;;10.00;99.90;;;;;;6296477;22;20003;-67
2022/10/21 09:16:33;;;;;;;4.30;3.70;;;10.00;99.90;;;;;;6294851;22;19996;-67
2022/10/21 09:19:32;;;;;;;4.90;4.35;;;10.10;99.90;;;;;;6295487;22;20015;-68
2022/10/21 09:22:51;;;;;;;4.38;3.88;;;10.20;99.90;;;;;;6296693;22;20026;-67
2022/10/21 09:25:24;;;;;;;5.43;3.67;;;10.20;99.90;;;;;;6296562;22;20000;-68
2022/10/21 09:27:51;;;;;;;4.35;3.17;;;10.20;99.90;;;;;;6297210;22;20038;-67
2022/10/21 09:30:20;;;;;;;6.03;3.80;;;10.20;99.90;;;;;;6296653;22;20003;-68
2022/10/21 09:33:05;;;;;;;8.82;3.35;;;10.20;99.90;;;;;;6296378;22;20013;-67
2022/10/21 09:35:41;;;;;;;5.97;3.72;;;10.20;99.90;;;;;;6295866;22;20010;-68
2022/10/21 09:38:16;;;;;;;3.63;3.20;;;10.20;99.90;;;;;;6295648;22;20130;-68
2022/10/21 09:40:43;;;;;;;4.93;3.75;;;10.20;99.90;;;;;;6289923;22;20015;-68
2022/10/21 09:43:16;;;;;;;4.30;3.47;;;10.20;99.90;;;;;;6293135;22;20018;-67
2022/10/21 09:45:44;;;;;;;5.65;3.53;;;10.30;99.90;;;;;;6299181;22;20007;-67
2022/10/21 09:48:19;;;;;;;4.18;3.28;;;10.30;99.90;;;;;;6276617;22;20003;-68
2022/10/21 09:50:52;;;;;;;4.53;4.07;;;10.40;99.90;;;;;;6276295;22;20043;-67
2022/10/21 09:53:38;;;;;;;4.55;3.85;;;10.40;99.90;;;;;;6304154;22;20004;-67
2022/10/21 09:56:11;;;;;;;5.85;3.95;;;10.40;99.90;;;;;;6225032;22;20045;-67
2022/10/21 09:58:37;;;;;;;3.53;3.22;;;10.40;99.90;;;;;;6303624;22;20018;-68
2022/10/21 10:01:06;;;;;;;4.60;3.63;;;10.40;99.90;;;;;;6303196;22;19999;-67
2022/10/21 10:03:44;;;;;;;4.45;3.38;;;10.40;99.90;;;;;;6299518;22;20197;-66
2022/10/21 10:06:10;;;;;;;3.78;3.47;;;10.50;99.90;;;;;;6299757;22;20026;-67
2022/10/21 10:08:46;;;;;;;4.63;4.00;;;10.60;99.90;;;;;;6306450;22;20409;-67
2022/10/21 10:11:17;;;;;;;4.75;4.20;;;10.60;99.90;;;;;;6302821;22;20003;-67
2022/10/21 10:13:48;;;;;;;4.80;3.90;;;10.60;99.90;;;;;;6276072;22;20344;-68
2022/10/21 10:16:21;;;;;;;6.13;4.28;;;10.50;99.90;;;;;;6299138;22;20026;-68
2022/10/21 10:18:52;;;;;;;5.43;3.90;;;10.60;99.90;;;;;;6305119;22;20011;-68
2022/10/21 10:21:20;;;;;;;4.38;3.97;;;10.60;99.90;;;;;;6305714;22;20000;-68
2022/10/21 10:23:51;;;;;;;5.53;4.15;;;10.70;99.90;;;;;;6304977;22;20000;-68
2022/10/21 10:26:30;;;;;;;7.78;4.13;;;10.70;99.90;;;;;;6296985;22;20694;-68
2022/10/21 10:29:07;;;;;;;5.18;4.25;;;10.80;99.90;;;;;;6297285;22;20480;-68
2022/10/21 10:31:34;;;;;;;4.30;3.67;;;10.80;99.90;;;;;;6293171;22;20022;-68
2022/10/21 10:34:04;;;;;;;4.32;3.85;;;10.80;99.90;;;;;;6296599;22;19999;-68
2022/10/21 10:36:35;;;;;;;11.75;3.97;;;10.80;99.90;;;;;;6296235;22;20056;-68
2022/10/21 10:39:04;;;;;;;7.40;4.45;;;10.90;99.90;;;;;;6296545;22;20072;-67
2022/10/21 10:41:37;;;;;;;4.82;4.28;;;10.90;99.90;;;;;;6292361;22;20021;-68
2022/10/21 10:44:20;;;;;;;5.53;4.10;;;10.90;99.90;;;;;;6291865;22;20034;-69
2022/10/21 10:46:54;;;;;;;6.07;4.50;;;11.00;99.90;;;;;;6291668;22;20003;-68
2022/10/21 10:49:21;;;;;;;6.88;4.18;;;11.10;99.90;;;;;;6289836;22;20005;-68
2022/10/21 10:52:03;;;;;;;5.90;4.18;;;11.10;99.90;;;;;;6294214;22;20705;-68
2022/10/21 10:54:29;;;;;;;6.47;3.78;;;11.20;99.90;;;;;;6291958;22;19999;-68
2022/10/21 10:56:59;;;;;;;7.93;4.80;;;11.20;99.90;;;;;;6295233;22;20021;-69
2022/10/21 10:59:48;;;;;;;13.40;6.15;;;11.30;99.90;;;;;;6294967;22;20015;-69
2022/10/21 11:02:19;;;;;;;8.40;4.93;;;11.50;99.90;;;;;;6293041;22;20050;-69
2022/10/21 11:05:32;;;;;;;3.90;3.53;;;11.50;99.90;;;;;;6286575;22;20014;-68
2022/10/21 11:08:04;;;;;;;6.00;3.17;;;11.50;99.90;;;;;;6202329;22;20328;-69
2022/10/21 11:10:40;;;;;;;3.42;2.95;;;11.50;99.90;;;;;;6285563;22;20018;-68
2022/10/21 11:13:14;;;;;;;6.38;3.03;;;11.50;99.90;;;;;;6289576;22;20445;-69
2022/10/21 11:15:48;;;;;;;4.60;3.20;;;11.40;99.90;;;;;;6287417;22;20417;-68
2022/10/21 11:18:18;;;;;;;2.78;2.55;;;11.50;99.90;;;;;;6290052;22;20061;-69
2022/10/21 11:21:08;;;;;;;13.32;3.35;;;11.50;99.90;;;;;;6291794;22;20011;-68
2022/10/21 11:23:47;;;;;;;3.35;2.80;;;11.50;99.90;;;;;;6261400;22;20405;-69
2022/10/21 11:26:43;;;;;;;3.05;2.75;;;11.50;99.90;;;;;;6293602;22;20151;-68
2022/10/21 11:29:31;;;;;;;3.67;3.03;;;11.50;99.90;;;;;;6293218;22;20005;-69
2022/10/21 11:32:06;;;;;;;4.05;2.72;;;11.50;99.90;;;;;;6298388;22;20026;-69
2022/10/21 11:35:09;;;;;;;3.00;2.22;;;11.50;99.90;;;;;;6293594;22;20006;-69
2022/10/21 11:37:48;;;;;;;3.88;2.22;;;11.50;99.90;;;;;;6292118;22;20015;-68
2022/10/21 11:40:40;;;;;;;9.10;2.83;;;11.60;99.90;;;;;;6292672;22;20531;-69
2022/10/21 11:43:23;;;;;;;3.45;2.53;;;11.60;99.90;;;;;;6288765;22;20007;-69
2022/10/21 11:45:54;;;;;;;5.68;3.60;;;11.60;99.90;;;;;;6287345;22;20186;-69
2022/10/21 11:48:44;;;;;;;5.07;3.00;;;11.60;99.90;;;;;;6266206;22;20014;-69
2022/10/21 11:51:50;;;;;;;3.38;3.08;;;11.60;99.90;;;;;;6293847;22;20014;-69
2022/10/21 11:54:52;;;;;;;6.63;3.13;;;11.60;99.90;;;;;;6294877;22;20003;-70
2022/10/21 11:57:28;;;;;;;5.60;3.90;;;11.60;99.90;;;;;;6295433;22;20003;-69
2022/10/21 12:00:05;;;;;;;7.07;2.90;;;11.60;99.90;;;;;;6293558;22;20022;-69
2022/10/21 12:02:40;;;;;;;7.53;4.40;;;11.60;99.90;;;;;;6290782;22;20678;-69
2022/10/21 12:05:21;;;;;;;6.80;4.25;;;11.70;99.90;;;;;;6289366;22;20114;-69
2022/10/21 12:08:29;;;;;;;6.20;3.53;;;11.80;99.90;;;;;;6291902;22;20031;-69
2022/10/21 12:11:11;;;;;;;6.10;3.42;;;11.80;99.90;;;;;;6283484;22;20014;-69
2022/10/21 12:13:43;;;;;;;4.60;3.97;;;11.80;99.90;;;;;;6288221;22;20011;-68
2022/10/21 12:16:12;;;;;;;6.95;4.10;;;11.80;99.90;;;;;;6289852;22;20038;-68
2022/10/21 12:18:52;;;;;;;5.47;4.03;;;11.80;99.90;;;;;;6290416;22;20011;-69
2022/10/21 12:21:22;;;;;;;9.70;5.18;;;11.90;99.90;;;;;;6292706;22;20094;-69
2022/10/21 12:23:52;;;;;;;5.20;3.85;;;11.90;99.90;;;;;;6289360;22;20002;-69
2022/10/21 12:26:27;;;;;;;6.75;4.35;;;11.90;99.90;;;;;;6289342;22;20007;-68
2022/10/21 12:29:05;;;;;;;7.00;4.63;;;11.90;99.90;;;;;;6295048;22;20492;-69
2022/10/21 12:32:04;;;;;;;5.72;4.03;;;11.90;99.90;;;;;;6293390;22;20055;-70
2022/10/21 12:34:30;;;;;;;5.05;3.63;;;11.90;99.90;;;;;;6267986;22;19999;-69
2022/10/21 12:36:56;;;;;;;12.65;6.05;;;12.00;99.90;;;;;;6265608;22;20022;-69
2022/10/21 12:39:33;;;;;;;8.25;6.53;;;12.00;99.90;;;;;;6293836;22;20681;-69
2022/10/21 12:42:17;;;;;;;10.70;7.50;;;12.00;99.90;;;;;;6293744;22;20455;-69
2022/10/21 12:44:48;;;;;;;21.08;13.80;;;12.00;99.90;;;;;;6293133;22;20004;-69
2022/10/21 12:47:42;;;;;;;20.67;14.60;;;12.10;99.90;;;;;;6294502;22;20014;-69
2022/10/21 12:50:14;;;;;;;16.50;11.88;;;12.00;99.90;;;;;;6290759;22;20003;-69
2022/10/21 12:52:41;;;;;;;10.25;7.80;;;12.00;99.90;;;;;;6295007;22;20013;-69
2022/10/21 12:55:22;;;;;;;9.55;6.55;;;12.00;99.90;;;;;;6295930;22;20324;-70
2022/10/21 12:57:58;;;;;;;7.40;5.50;;;12.00;99.90;;;;;;6291183;22;20052;-69
2022/10/21 13:00:27;;;;;;;8.18;5.00;;;12.10;99.90;;;;;;6290724;22;20741;-69
2022/10/21 13:02:58;;;;;;;9.05;4.53;;;12.10;99.90;;;;;;6266619;22;20007;-70
2022/10/21 13:05:35;;;;;;;6.55;4.68;;;12.20;99.90;;;;;;6289448;22;20012;-69
2022/10/21 13:08:21;;;;;;;7.88;4.45;;;12.20;99.90;;;;;;6292105;22;20014;-68
2022/10/21 13:11:05;;;;;;;5.93;3.40;;;12.20;99.90;;;;;;6294061;22;20003;-69
2022/10/21 13:13:39;;;;;;;7.57;4.68;;;12.10;99.90;;;;;;6291786;22;20004;-69